Horsens, Denmark
Current Conditions -  °F | °C
As of 12:20 PM on Sunday 23 Nov 2014 (Local Time) from EKBI Reporting Station
Haze Haze  
Wind Chill: 38°   Ceiling: 600
Heat Index: 45°   Visibility: 3mi
Dew Point: 43°   Wind: 14mph
Humidity: 93%   Direction: 130°SE
Pressure: 30.09"   Gusts: NA
Location:  55.86°N, 9.85°E
Report Text: EKBI 231120Z AUTO 13012KT 100V160 4900NDV BR OVC006///07/06 Q1019
Loading
Personal Weather Stations






























Interactive Weather Map New forecast layout! Learn more

10-Day Weather Forecast

Advertisements
Track Severe Weather on mobile